Time;durP1;ratioP1;P1;durP2;ratioP2;P2;SDS_P1;SDS_P2;PMS_P1;PMS_P2;Temp;Humidity;BMP_temperature;BMP_pressure;BME280_temperature;BME280_humidity;BME280_pressure;Samples;Min_cycle;Max_cycle;Signal;HPM_P1;HPM_P2
2021/05/03 00:01:42;;;;;;;3.33;3.13;;;;;;;;;;5094918;28;20065;-68
2021/05/03 00:04:08;;;;;;;4.25;3.85;;;;;;;;;;5095000;28;20457;-68
2021/05/03 00:06:33;;;;;;;3.55;3.30;;;;;;;;;;5094733;28;20027;-68
2021/05/03 00:08:59;;;;;;;3.67;3.05;;;;;;;;;;5093499;28;20028;-68
2021/05/03 00:11:24;;;;;;;2.63;2.42;;;;;;;;;;5095099;28;20016;-66
2021/05/03 00:13:50;;;;;;;4.05;2.95;;;;;;;;;;5094824;28;20052;-67
2021/05/03 00:16:15;;;;;;;3.03;2.83;;;;;;;;;;5093419;28;20381;-66
2021/05/03 00:18:41;;;;;;;3.08;2.88;;;;;;;;;;5094844;28;20035;-66
2021/05/03 00:21:06;;;;;;;2.80;2.63;;;;;;;;;;5094527;28;20458;-66
2021/05/03 00:23:32;;;;;;;2.75;2.55;;;;;;;;;;5094618;28;20020;-66
2021/05/03 00:25:57;;;;;;;2.53;2.33;;;;;;;;;;5094595;28;20045;-66
2021/05/03 00:28:23;;;;;;;3.15;2.63;;;;;;;;;;5094440;28;20024;-66
2021/05/03 00:30:49;;;;;;;3.05;2.88;;;;;;;;;;5094581;28;20084;-66
2021/05/03 00:33:14;;;;;;;3.17;2.88;;;;;;;;;;5093871;28;20039;-66
2021/05/03 00:35:40;;;;;;;2.65;2.45;;;;;;;;;;5094368;28;20021;-66
2021/05/03 00:38:05;;;;;;;2.92;2.63;;;;;;;;;;5094314;28;20039;-66
2021/05/03 00:40:31;;;;;;;2.72;2.53;;;;;;;;;;5094096;28;20016;-66
2021/05/03 00:42:57;;;;;;;2.92;2.70;;;;;;;;;;5093567;28;20177;-66
2021/05/03 00:45:23;;;;;;;3.75;3.20;;;;;;;;;;5093406;28;20430;-66
2021/05/03 00:47:49;;;;;;;3.83;3.53;;;;;;;;;;5093425;28;20035;-69
2021/05/03 00:50:17;;;;;;;3.42;3.05;;;;;;;;;;5093538;28;20095;-68
2021/05/03 00:52:42;;;;;;;3.17;2.97;;;;;;;;;;5093441;28;20034;-69
2021/05/03 00:55:09;;;;;;;2.92;2.72;;;;;;;;;;5092034;28;20016;-68
2021/05/03 00:57:34;;;;;;;2.80;2.60;;;;;;;;;;5092171;28;20052;-68
2021/05/03 01:00:00;;;;;;;3.03;2.83;;;;;;;;;;5093165;28;20050;-67
2021/05/03 01:02:25;;;;;;;3.35;2.95;;;;;;;;;;5093176;28;20059;-67
2021/05/03 01:04:51;;;;;;;3.38;2.75;;;;;;;;;;5093056;28;20023;-67
2021/05/03 01:07:16;;;;;;;3.08;2.88;;;;;;;;;;5092874;28;20494;-67
2021/05/03 01:09:42;;;;;;;3.30;3.00;;;;;;;;;;5093179;28;20467;-66
2021/05/03 01:12:08;;;;;;;3.70;3.40;;;;;;;;;;5093289;28;20031;-66
2021/05/03 01:14:33;;;;;;;3.15;2.95;;;;;;;;;;5093036;28;20028;-66
2021/05/03 01:16:59;;;;;;;4.18;3.75;;;;;;;;;;5093215;28;20026;-68
2021/05/03 01:19:24;;;;;;;4.30;3.90;;;;;;;;;;5091441;28;20048;-68
2021/05/03 01:21:50;;;;;;;4.45;3.85;;;;;;;;;;5092931;28;20119;-68
2021/05/03 01:24:17;;;;;;;3.10;2.90;;;;;;;;;;5092814;28;20051;-67
2021/05/03 01:26:42;;;;;;;3.92;3.08;;;;;;;;;;5092717;28;20035;-67
2021/05/03 01:29:08;;;;;;;3.75;3.45;;;;;;;;;;5091701;28;20020;-67
2021/05/03 01:31:34;;;;;;;3.80;3.20;;;;;;;;;;5091435;28;20080;-66
2021/05/03 01:34:17;;;;;;;3.50;3.10;;;;;;;;;;5092912;28;20017;-67
2021/05/03 01:36:44;;;;;;;3.08;2.78;;;;;;;;;;5091774;28;20036;-66
2021/05/03 01:39:11;;;;;;;3.17;2.97;;;;;;;;;;5092492;28;20026;-67
2021/05/03 01:41:37;;;;;;;2.78;2.60;;;;;;;;;;5092721;28;20540;-67
2021/05/03 01:44:03;;;;;;;3.33;3.10;;;;;;;;;;5064490;28;816293;-67
2021/05/03 01:46:30;;;;;;;1.85;1.75;;;;;;;;;;5097045;28;20043;-67
2021/05/03 01:48:58;;;;;;;2.45;2.28;;;;;;;;;;5097645;28;20111;-67
2021/05/03 01:51:24;;;;;;;2.72;2.53;;;;;;;;;;5096464;28;20020;-67
2021/05/03 01:53:49;;;;;;;3.15;2.95;;;;;;;;;;5097696;28;20146;-67
2021/05/03 01:56:17;;;;;;;3.00;2.60;;;;;;;;;;5097407;28;20112;-66
2021/05/03 01:58:42;;;;;;;2.67;2.50;;;;;;;;;;5097245;28;20024;-67
2021/05/03 02:01:08;;;;;;;2.08;1.98;;;;;;;;;;5097333;28;20500;-66
2021/05/03 02:03:33;;;;;;;1.98;1.88;;;;;;;;;;5097253;28;20496;-67
2021/05/03 02:05:59;;;;;;;2.63;2.47;;;;;;;;;;5097105;28;20024;-66
2021/05/03 02:08:25;;;;;;;2.10;2.00;;;;;;;;;;5097239;28;20085;-66
2021/05/03 02:10:51;;;;;;;1.80;1.70;;;;;;;;;;5097160;28;20024;-68
2021/05/03 02:13:18;;;;;;;1.45;1.38;;;;;;;;;;5095880;28;20019;-67
2021/05/03 02:15:47;;;;;;;1.77;1.67;;;;;;;;;;5097005;28;20059;-68
2021/05/03 02:18:12;;;;;;;1.58;1.48;;;;;;;;;;5095788;28;20469;-67
2021/05/03 02:20:38;;;;;;;2.22;1.95;;;;;;;;;;5096305;28;20035;-67
2021/05/03 02:23:03;;;;;;;1.90;1.80;;;;;;;;;;5096715;28;20107;-67
2021/05/03 02:25:29;;;;;;;2.15;2.05;;;;;;;;;;5096495;28;20035;-67
2021/05/03 02:27:55;;;;;;;1.83;1.73;;;;;;;;;;5095481;28;20055;-66
2021/05/03 02:30:21;;;;;;;1.55;1.45;;;;;;;;;;5097110;28;20024;-66
2021/05/03 02:32:47;;;;;;;1.75;1.65;;;;;;;;;;5096889;28;20020;-66
2021/05/03 02:35:17;;;;;;;2.33;2.22;;;;;;;;;;5095563;28;20119;-66
2021/05/03 02:37:46;;;;;;;2.00;1.90;;;;;;;;;;5096886;28;20035;-67
2021/05/03 02:40:11;;;;;;;1.58;1.48;;;;;;;;;;5096527;28;20111;-65
2021/05/03 02:42:38;;;;;;;2.22;2.13;;;;;;;;;;5096143;28;20094;-66
2021/05/03 02:45:04;;;;;;;2.33;2.20;;;;;;;;;;5097015;28;20058;-66
2021/05/03 02:47:29;;;;;;;2.35;2.17;;;;;;;;;;5096486;28;20027;-66
2021/05/03 02:49:55;;;;;;;2.28;1.52;;;;;;;;;;5096653;28;20047;-66
2021/05/03 02:52:20;;;;;;;1.90;1.80;;;;;;;;;;5096346;28;20446;-66
2021/05/03 02:54:46;;;;;;;2.67;2.22;;;;;;;;;;5095210;28;20077;-66
2021/05/03 02:57:11;;;;;;;1.88;1.77;;;;;;;;;;5094628;28;20016;-67
2021/05/03 02:59:37;;;;;;;2.38;2.17;;;;;;;;;;5095159;28;20046;-66
2021/05/03 03:02:02;;;;;;;2.20;2.10;;;;;;;;;;5096113;28;20043;-66
2021/05/03 03:04:27;;;;;;;2.10;2.00;;;;;;;;;;5094778;28;20077;-66
2021/05/03 03:06:53;;;;;;;2.38;2.22;;;;;;;;;;5095866;28;20061;-65
2021/05/03 03:09:19;;;;;;;2.75;2.55;;;;;;;;;;5096092;28;20024;-66
2021/05/03 03:11:47;;;;;;;2.35;2.25;;;;;;;;;;5095892;28;20057;-67
2021/05/03 03:14:13;;;;;;;2.55;2.40;;;;;;;;;;5094866;28;20047;-66
2021/05/03 03:16:38;;;;;;;2.35;2.22;;;;;;;;;;5095389;28;20450;-67
2021/05/03 03:19:04;;;;;;;2.35;2.25;;;;;;;;;;5095572;28;20497;-67
2021/05/03 03:21:29;;;;;;;2.45;2.35;;;;;;;;;;5095563;28;20412;-66
2021/05/03 03:23:55;;;;;;;2.40;2.17;;;;;;;;;;5095769;28;20032;-67
2021/05/03 03:26:21;;;;;;;2.40;2.28;;;;;;;;;;5095503;28;20023;-66
2021/05/03 03:28:47;;;;;;;2.72;2.63;;;;;;;;;;5095793;28;20078;-66
2021/05/03 03:31:13;;;;;;;2.63;2.42;;;;;;;;;;5095510;28;20466;-66
2021/05/03 03:33:38;;;;;;;2.47;2.38;;;;;;;;;;5095627;28;20034;-68
2021/05/03 03:36:05;;;;;;;2.80;2.60;;;;;;;;;;5095316;28;20020;-68
2021/05/03 03:38:31;;;;;;;2.47;2.38;;;;;;;;;;5095311;28;20111;-69
2021/05/03 03:40:56;;;;;;;2.95;2.75;;;;;;;;;;5095342;28;20043;-67
2021/05/03 03:43:22;;;;;;;3.08;2.80;;;;;;;;;;5094918;28;20397;-67
2021/05/03 03:45:47;;;;;;;3.55;3.25;;;;;;;;;;5095631;28;20123;-67
2021/05/03 03:48:13;;;;;;;2.80;2.60;;;;;;;;;;5095192;28;20063;-67
2021/05/03 03:50:38;;;;;;;3.53;3.33;;;;;;;;;;5095115;28;20031;-67
2021/05/03 03:53:04;;;;;;;2.47;2.33;;;;;;;;;;5095468;28;20066;-68
2021/05/03 03:55:30;;;;;;;3.15;2.95;;;;;;;;;;5095031;28;20019;-65
2021/05/03 03:57:55;;;;;;;3.08;2.88;;;;;;;;;;5094896;28;20122;-65
2021/05/03 04:00:21;;;;;;;3.10;2.90;;;;;;;;;;5094879;28;20020;-64
2021/05/03 04:02:49;;;;;;;3.08;2.88;;;;;;;;;;5095181;28;20034;-67
2021/05/03 04:10:45;;;;;;;5.57;5.03;;;;;;;;;;5094436;28;20027;-69
2021/05/03 04:13:38;;;;;;;5.18;4.30;;;;;;;;;;5093200;28;20028;-68
2021/05/03 04:27:01;;;;;;;4.35;3.95;;;;;;;;;;5085472;28;20047;-66
2021/05/03 04:29:26;;;;;;;3.72;3.42;;;;;;;;;;5094452;28;20024;-66
2021/05/03 04:31:52;;;;;;;3.33;3.13;;;;;;;;;;5094330;28;20020;-69
2021/05/03 04:34:17;;;;;;;3.63;3.38;;;;;;;;;;5093278;28;20115;-69
2021/05/03 04:36:43;;;;;;;3.05;2.85;;;;;;;;;;5093094;28;20032;-68
2021/05/03 04:39:09;;;;;;;2.72;2.60;;;;;;;;;;5094316;28;20023;-69
2021/05/03 04:41:34;;;;;;;2.97;2.75;;;;;;;;;;5094165;28;20032;-68
2021/05/03 04:44:00;;;;;;;2.58;2.25;;;;;;;;;;5094159;28;20080;-69
2021/05/03 04:46:25;;;;;;;2.97;2.78;;;;;;;;;;5094136;28;20024;-66
2021/05/03 04:48:51;;;;;;;2.88;2.65;;;;;;;;;;5094042;28;20027;-67
2021/05/03 04:51:16;;;;;;;2.65;2.55;;;;;;;;;;5094094;28;20032;-67
2021/05/03 04:53:42;;;;;;;5.07;3.28;;;;;;;;;;5093949;28;20031;-67
2021/05/03 04:56:07;;;;;;;2.75;2.63;;;;;;;;;;5093904;28;20040;-67
2021/05/03 04:58:33;;;;;;;3.22;3.03;;;;;;;;;;5093858;28;20016;-67
2021/05/03 05:00:58;;;;;;;3.08;2.88;;;;;;;;;;5093847;28;20040;-67
2021/05/03 05:03:24;;;;;;;2.88;2.58;;;;;;;;;;5093602;28;20020;-66
2021/05/03 05:05:51;;;;;;;3.17;2.97;;;;;;;;;;5093931;28;20036;-66
2021/05/03 05:08:17;;;;;;;4.47;3.42;;;;;;;;;;5093943;28;20024;-66
2021/05/03 05:10:43;;;;;;;3.85;3.55;;;;;;;;;;5092788;28;20456;-67
2021/05/03 05:13:08;;;;;;;5.00;4.57;;;;;;;;;;5093759;28;20106;-67
2021/05/03 05:15:34;;;;;;;3.17;2.88;;;;;;;;;;5092269;28;20081;-67
2021/05/03 05:17:59;;;;;;;2.95;2.75;;;;;;;;;;5093407;28;20103;-67
2021/05/03 05:20:25;;;;;;;3.05;2.78;;;;;;;;;;5092947;28;20024;-67
2021/05/03 05:22:50;;;;;;;2.58;2.22;;;;;;;;;;5092185;28;20485;-67
2021/05/03 05:25:16;;;;;;;2.78;2.58;;;;;;;;;;5093273;28;20164;-67
2021/05/03 05:27:41;;;;;;;3.38;3.17;;;;;;;;;;5093137;28;20016;-67
2021/05/03 05:30:08;;;;;;;3.80;3.13;;;;;;;;;;5093292;28;20513;-67
2021/05/03 05:32:33;;;;;;;3.75;3.45;;;;;;;;;;5091986;28;20110;-67
2021/05/03 05:34:59;;;;;;;3.38;3.15;;;;;;;;;;5091381;28;20174;-67
2021/05/03 05:37:24;;;;;;;3.35;2.95;;;;;;;;;;5091794;28;20008;-67
2021/05/03 05:39:50;;;;;;;4.80;4.40;;;;;;;;;;5092713;28;20056;-66
2021/05/03 05:42:15;;;;;;;5.30;4.78;;;;;;;;;;5093105;28;20421;-67
2021/05/03 05:44:41;;;;;;;5.57;4.60;;;;;;;;;;5093474;28;20038;-67
2021/05/03 05:47:06;;;;;;;2.88;2.65;;;;;;;;;;5093134;28;20024;-68
2021/05/03 05:49:32;;;;;;;3.95;3.58;;;;;;;;;;5093511;28;20024;-67
2021/05/03 05:51:57;;;;;;;4.80;4.30;;;;;;;;;;5093298;28;20381;-67
2021/05/03 05:54:23;;;;;;;2.72;2.50;;;;;;;;;;5093388;28;20420;-67
2021/05/03 05:56:48;;;;;;;3.25;2.92;;;;;;;;;;5092976;28;20537;-67
2021/05/03 05:59:15;;;;;;;4.60;2.88;;;;;;;;;;5093361;28;20032;-67
2021/05/03 06:01:40;;;;;;;2.28;2.17;;;;;;;;;;5093025;28;20058;-67
2021/05/03 06:04:06;;;;;;;3.45;2.45;;;;;;;;;;5093026;28;20044;-67
2021/05/03 06:06:31;;;;;;;1.60;1.52;;;;;;;;;;5092957;28;20454;-67
2021/05/03 06:08:57;;;;;;;4.00;3.60;;;;;;;;;;5091649;28;20055;-67
2021/05/03 06:11:22;;;;;;;2.70;2.50;;;;;;;;;;5093050;28;20057;-66
2021/05/03 06:13:47;;;;;;;1.65;1.55;;;;;;;;;;5093032;28;20016;-67
2021/05/03 06:16:13;;;;;;;3.08;2.88;;;;;;;;;;5092151;28;20008;-66
2021/05/03 06:18:38;;;;;;;2.28;2.10;;;;;;;;;;5092854;28;20065;-67
2021/05/03 06:21:04;;;;;;;6.65;3.28;;;;;;;;;;5092819;28;20016;-66
2021/05/03 06:23:30;;;;;;;2.17;2.08;;;;;;;;;;5093030;28;20052;-66
2021/05/03 06:25:56;;;;;;;5.47;3.42;;;;;;;;;;5093119;28;20528;-67
2021/05/03 06:28:22;;;;;;;3.35;3.03;;;;;;;;;;5093079;28;20036;-67
2021/05/03 06:30:53;;;;;;;1.88;1.73;;;;;;;;;;5093626;28;20493;-66
2021/05/03 06:33:19;;;;;;;3.47;3.17;;;;;;;;;;5096842;28;20549;-66
2021/05/03 06:35:44;;;;;;;2.80;2.28;;;;;;;;;;5096673;28;20055;-66
2021/05/03 06:38:10;;;;;;;3.67;3.38;;;;;;;;;;5096665;28;20054;-66
2021/05/03 06:40:35;;;;;;;2.90;2.70;;;;;;;;;;5096690;28;20035;-66
2021/05/03 06:43:01;;;;;;;3.75;2.08;;;;;;;;;;5095915;28;20488;-66
2021/05/03 06:45:30;;;;;;;0.80;0.75;;;;;;;;;;5096452;28;20028;-66
2021/05/03 06:47:56;;;;;;;3.45;3.15;;;;;;;;;;5096522;28;20070;-65
2021/05/03 06:50:21;;;;;;;2.40;2.20;;;;;;;;;;5094118;28;20378;-71
2021/05/03 06:52:47;;;;;;;3.13;2.65;;;;;;;;;;5096027;28;20063;-63
2021/05/03 06:55:13;;;;;;;2.15;2.05;;;;;;;;;;5095060;28;20016;-66
2021/05/03 06:57:39;;;;;;;2.47;2.28;;;;;;;;;;5094764;28;20028;-66
2021/05/03 07:00:05;;;;;;;2.35;2.15;;;;;;;;;;5095916;28;20023;-67
2021/05/03 07:02:31;;;;;;;2.28;2.03;;;;;;;;;;5096026;28;20458;-67
2021/05/03 07:04:56;;;;;;;2.28;2.17;;;;;;;;;;5095874;28;20035;-67
2021/05/03 07:07:22;;;;;;;1.95;1.85;;;;;;;;;;5095799;28;20023;-67
2021/05/03 07:09:47;;;;;;;0.82;0.82;;;;;;;;;;5096085;28;20404;-67
2021/05/03 07:12:14;;;;;;;2.30;2.13;;;;;;;;;;5096045;28;20482;-67
2021/05/03 07:14:40;;;;;;;1.77;1.67;;;;;;;;;;5095746;28;20104;-67
2021/05/03 07:17:06;;;;;;;3.10;2.08;;;;;;;;;;5096077;28;20024;-67
2021/05/03 07:19:32;;;;;;;1.45;1.23;;;;;;;;;;5095564;28;20027;-68
2021/05/03 07:21:59;;;;;;;3.20;2.28;;;;;;;;;;5094156;28;20032;-67
2021/05/03 07:24:24;;;;;;;2.35;2.17;;;;;;;;;;5095487;28;20020;-68
2021/05/03 07:26:51;;;;;;;2.35;2.15;;;;;;;;;;5095260;28;20097;-68
2021/05/03 07:29:17;;;;;;;1.85;1.75;;;;;;;;;;5095496;28;20055;-68
2021/05/03 07:31:42;;;;;;;2.80;2.38;;;;;;;;;;5095186;28;20044;-67
2021/05/03 07:34:08;;;;;;;2.67;2.47;;;;;;;;;;5093906;28;20048;-62
2021/05/03 07:36:33;;;;;;;2.53;2.00;;;;;;;;;;5095238;28;20035;-62
2021/05/03 07:38:59;;;;;;;2.25;1.92;;;;;;;;;;5095529;28;20070;-65
2021/05/03 07:41:25;;;;;;;1.80;1.70;;;;;;;;;;5095238;28;20073;-66
2021/05/03 07:43:50;;;;;;;1.92;1.80;;;;;;;;;;5093543;28;20127;-65
2021/05/03 07:46:24;;;;;;;1.88;1.77;;;;;;;;;;5094613;28;20028;-65
2021/05/03 07:48:50;;;;;;;1.80;1.70;;;;;;;;;;5086245;28;20060;-65
2021/05/03 07:51:15;;;;;;;2.20;2.00;;;;;;;;;;5091146;28;20081;-66
2021/05/03 07:53:41;;;;;;;2.88;1.92;;;;;;;;;;5091039;28;20032;-66
2021/05/03 07:56:06;;;;;;;2.45;1.95;;;;;;;;;;5091068;28;20248;-66
2021/05/03 07:58:32;;;;;;;1.42;1.33;;;;;;;;;;5089400;28;20074;-67
2021/05/03 08:00:57;;;;;;;2.38;1.92;;;;;;;;;;5090563;28;20039;-67
2021/05/03 08:03:23;;;;;;;1.98;1.73;;;;;;;;;;5072178;28;20032;-66
2021/05/03 08:05:48;;;;;;;1.45;1.05;;;;;;;;;;5090465;28;20543;-67
2021/05/03 08:08:14;;;;;;;7.72;2.60;;;;;;;;;;5089947;28;20062;-67
2021/05/03 08:10:40;;;;;;;1.95;1.83;;;;;;;;;;5090620;28;20049;-67
2021/05/03 08:13:05;;;;;;;1.60;1.50;;;;;;;;;;5089230;28;20028;-66
2021/05/03 08:15:31;;;;;;;2.00;1.77;;;;;;;;;;5090633;28;20473;-66
2021/05/03 08:17:56;;;;;;;2.17;1.50;;;;;;;;;;5090260;28;20055;-66
2021/05/03 08:20:22;;;;;;;1.30;1.20;;;;;;;;;;5090561;28;20028;-66
2021/05/03 08:22:47;;;;;;;1.77;1.65;;;;;;;;;;5090806;28;20036;-76
2021/05/03 08:25:13;;;;;;;1.88;1.73;;;;;;;;;;5091691;28;20034;-76
2021/05/03 08:27:40;;;;;;;1.80;1.70;;;;;;;;;;5091420;28;20449;-76
2021/05/03 08:30:06;;;;;;;2.28;1.92;;;;;;;;;;5092948;28;20377;-76
2021/05/03 08:32:32;;;;;;;1.70;1.60;;;;;;;;;;5094355;28;20016;-70
2021/05/03 08:34:58;;;;;;;1.65;1.45;;;;;;;;;;5092962;28;20027;-65
2021/05/03 08:37:23;;;;;;;1.90;1.70;;;;;;;;;;5094077;28;20146;-65
2021/05/03 08:39:49;;;;;;;2.28;1.70;;;;;;;;;;5093627;28;20056;-65
2021/05/03 08:42:16;;;;;;;1.70;1.60;;;;;;;;;;5093717;28;20508;-66
2021/05/03 08:44:47;;;;;;;1.83;1.73;;;;;;;;;;5094230;28;20028;-65
2021/05/03 08:47:13;;;;;;;1.58;1.40;;;;;;;;;;5094266;28;20071;-65
2021/05/03 08:50:06;;;;;;;1.95;1.58;;;;;;;;;;5092978;28;20047;-65
2021/05/03 08:52:46;;;;;;;1.48;1.38;;;;;;;;;;5094390;28;20032;-65
2021/05/03 08:55:12;;;;;;;1.42;1.08;;;;;;;;;;5093778;28;20403;-65
2021/05/03 08:57:38;;;;;;;2.15;1.42;;;;;;;;;;5093611;28;20024;-65
2021/05/03 09:00:05;;;;;;;1.80;1.70;;;;;;;;;;5093580;28;20525;-65
2021/05/03 09:02:30;;;;;;;2.33;2.05;;;;;;;;;;5093553;28;20016;-65
2021/05/03 09:04:56;;;;;;;4.05;2.17;;;;;;;;;;5093535;28;20034;-65
2021/05/03 09:07:22;;;;;;;3.55;1.88;;;;;;;;;;5093519;28;20016;-65
2021/05/03 09:09:53;;;;;;;2.33;2.10;;;;;;;;;;5093455;28;20034;-65
2021/05/03 09:12:23;;;;;;;3.28;2.65;;;;;;;;;;5092171;28;20077;-65
2021/05/03 09:14:50;;;;;;;2.00;1.90;;;;;;;;;;5093420;28;20020;-65
2021/05/03 09:17:22;;;;;;;1.83;1.63;;;;;;;;;;5093345;28;20031;-65
2021/05/03 09:19:48;;;;;;;1.73;1.63;;;;;;;;;;5093436;28;20040;-65
2021/05/03 09:22:23;;;;;;;1.77;1.67;;;;;;;;;;5093286;28;20111;-65
2021/05/03 09:24:50;;;;;;;1.50;1.33;;;;;;;;;;5093377;28;20059;-65
2021/05/03 09:27:19;;;;;;;1.38;1.27;;;;;;;;;;5093123;28;20020;-65
2021/05/03 09:29:44;;;;;;;1.75;1.20;;;;;;;;;;5093380;28;20024;-65
2021/05/03 09:32:11;;;;;;;3.67;1.55;;;;;;;;;;5093214;28;20042;-65
2021/05/03 09:34:40;;;;;;;1.38;1.27;;;;;;;;;;5093128;28;20074;-65
2021/05/03 09:37:26;;;;;;;1.58;1.48;;;;;;;;;;5093028;28;20016;-65
2021/05/03 09:39:52;;;;;;;1.58;1.40;;;;;;;;;;5091856;28;20024;-65
2021/05/03 09:42:18;;;;;;;1.88;1.48;;;;;;;;;;5092755;28;20024;-65
2021/05/03 09:45:02;;;;;;;1.75;1.40;;;;;;;;;;5093124;28;20035;-65
2021/05/03 09:47:29;;;;;;;1.77;1.67;;;;;;;;;;5091701;28;20382;-65
2021/05/03 09:49:54;;;;;;;1.73;1.58;;;;;;;;;;5093061;28;20016;-65
2021/05/03 09:52:20;;;;;;;1.15;1.10;;;;;;;;;;5092935;28;20028;-64
2021/05/03 09:54:45;;;;;;;1.70;1.52;;;;;;;;;;5092947;28;20378;-64
2021/05/03 09:57:11;;;;;;;1.80;1.70;;;;;;;;;;5092925;28;20028;-64
2021/05/03 09:59:36;;;;;;;1.85;1.73;;;;;;;;;;5091634;28;20072;-64
2021/05/03 10:02:28;;;;;;;1.50;1.40;;;;;;;;;;5091680;28;20024;-65
2021/05/03 10:04:59;;;;;;;1.58;1.48;;;;;;;;;;5092983;28;20426;-64
2021/05/03 10:07:26;;;;;;;1.35;1.25;;;;;;;;;;5096301;28;20028;-64
2021/05/03 10:12:33;;;;;;;1.75;1.65;;;;;;;;;;5095697;28;20089;-64
2021/05/03 10:15:00;;;;;;;2.10;1.80;;;;;;;;;;5096785;28;20035;-64
2021/05/03 10:17:26;;;;;;;1.92;1.42;;;;;;;;;;5096652;28;20028;-64
2021/05/03 10:19:53;;;;;;;1.52;1.48;;;;;;;;;;5096582;28;20024;-64
2021/05/03 10:22:19;;;;;;;1.58;1.48;;;;;;;;;;5096755;28;20024;-64
2021/05/03 10:24:46;;;;;;;1.70;1.50;;;;;;;;;;5096666;28;20024;-64
2021/05/03 10:27:12;;;;;;;1.35;1.25;;;;;;;;;;5096417;28;20094;-64
2021/05/03 10:29:40;;;;;;;1.42;1.33;;;;;;;;;;5096197;28;20454;-64
2021/05/03 10:32:07;;;;;;;3.25;3.05;;;;;;;;;;5095220;28;20078;-64
2021/05/03 10:34:39;;;;;;;2.00;1.90;;;;;;;;;;5096255;28;20074;-64
2021/05/03 10:37:25;;;;;;;1.40;1.30;;;;;;;;;;5096265;28;20028;-64
2021/05/03 10:39:50;;;;;;;1.35;1.20;;;;;;;;;;5088554;28;20036;-64
2021/05/03 10:42:16;;;;;;;1.20;1.10;;;;;;;;;;5095941;28;20488;-64
2021/05/03 10:45:00;;;;;;;1.60;1.50;;;;;;;;;;5096303;28;20085;-64
2021/05/03 10:47:26;;;;;;;1.83;1.70;;;;;;;;;;5096041;28;20424;-64
2021/05/03 10:49:52;;;;;;;1.08;1.00;;;;;;;;;;5096060;28;20373;-64
2021/05/03 10:52:31;;;;;;;1.58;1.48;;;;;;;;;;5096041;28;20024;-64
2021/05/03 10:54:56;;;;;;;1.65;1.55;;;;;;;;;;5096066;28;20080;-64
2021/05/03 10:57:22;;;;;;;1.92;1.20;;;;;;;;;;5095911;28;20024;-64
2021/05/03 10:59:52;;;;;;;1.10;1.00;;;;;;;;;;5095878;28;20038;-64
2021/05/03 11:02:19;;;;;;;1.75;1.38;;;;;;;;;;5095898;28;20043;-64
2021/05/03 11:05:03;;;;;;;1.55;1.45;;;;;;;;;;5095883;28;20035;-64
2021/05/03 11:07:28;;;;;;;1.20;1.20;;;;;;;;;;5094400;28;20076;-64
2021/05/03 11:09:53;;;;;;;2.97;1.30;;;;;;;;;;5095937;28;20103;-64
2021/05/03 11:12:22;;;;;;;1.77;1.27;;;;;;;;;;5095697;28;20028;-64
2021/05/03 11:15:06;;;;;;;1.67;1.30;;;;;;;;;;5095606;28;20024;-64
2021/05/03 11:17:32;;;;;;;2.58;1.58;;;;;;;;;;5095202;28;20028;-64
2021/05/03 11:20:16;;;;;;;2.85;1.30;;;;;;;;;;5094164;28;20069;-64
2021/05/03 11:23:07;;;;;;;1.50;1.38;;;;;;;;;;5095574;28;20432;-64
2021/05/03 11:25:34;;;;;;;2.20;1.30;;;;;;;;;;5095430;28;20032;-64
2021/05/03 11:28:14;;;;;;;2.10;1.30;;;;;;;;;;5094142;28;20028;-64
2021/05/03 11:30:46;;;;;;;1.27;1.17;;;;;;;;;;5095552;28;20035;-64
2021/05/03 11:33:15;;;;;;;1.23;1.13;;;;;;;;;;5095335;28;20473;-64
2021/05/03 11:35:53;;;;;;;1.88;1.13;;;;;;;;;;5095343;28;20115;-64
2021/05/03 11:44:11;;;;;;;1.10;1.10;;;;;;;;;;5093521;28;20082;-64
2021/05/03 11:46:11;;;;;;;1.13;1.02;;;;;;;;;;5087420;28;20084;-64
2021/05/03 11:48:37;;;;;;;1.15;1.00;;;;;;;;;;5094852;28;20049;-64
2021/05/03 11:51:13;;;;;;;1.30;1.20;;;;;;;;;;5094869;28;20382;-64
2021/05/03 11:53:42;;;;;;;0.50;0.50;;;;;;;;;;5093703;28;20024;-64
2021/05/03 11:56:18;;;;;;;1.70;1.05;;;;;;;;;;5093504;28;20032;-64
2021/05/03 11:58:48;;;;;;;1.20;1.10;;;;;;;;;;5094789;28;20097;-64
2021/05/03 12:01:15;;;;;;;1.77;0.90;;;;;;;;;;5093536;28;20535;-64
2021/05/03 12:03:45;;;;;;;1.20;1.08;;;;;;;;;;5094725;28;20043;-64
2021/05/03 12:06:10;;;;;;;1.70;1.15;;;;;;;;;;5093383;28;20024;-64
2021/05/03 12:08:36;;;;;;;1.20;1.00;;;;;;;;;;5094428;28;20127;-64
2021/05/03 12:11:08;;;;;;;1.45;1.23;;;;;;;;;;5093164;28;20033;-64
2021/05/03 12:13:34;;;;;;;1.55;0.80;;;;;;;;;;5094518;28;20020;-64
2021/05/03 12:16:00;;;;;;;0.93;0.80;;;;;;;;;;5093175;28;20027;-64
2021/05/03 12:18:25;;;;;;;1.08;1.08;;;;;;;;;;5094435;28;20062;-64
2021/05/03 12:20:53;;;;;;;0.88;0.85;;;;;;;;;;5092700;28;20031;-65
2021/05/03 12:23:23;;;;;;;1.15;0.60;;;;;;;;;;5094451;28;20489;-64
2021/05/03 12:25:52;;;;;;;0.85;0.85;;;;;;;;;;5094261;28;20028;-64
2021/05/03 12:28:19;;;;;;;2.25;1.30;;;;;;;;;;5093534;28;20489;-64
2021/05/03 12:30:44;;;;;;;1.58;1.38;;;;;;;;;;5094141;28;20026;-64
2021/05/03 12:33:11;;;;;;;1.23;1.00;;;;;;;;;;5092829;28;20466;-64
2021/05/03 12:35:37;;;;;;;1.77;1.40;;;;;;;;;;5094022;28;20519;-64
2021/05/03 12:38:15;;;;;;;1.10;1.00;;;;;;;;;;5092693;28;20028;-64
2021/05/03 12:40:40;;;;;;;1.45;1.23;;;;;;;;;;5092730;28;20470;-64
2021/05/03 12:43:06;;;;;;;1.33;1.23;;;;;;;;;;5092196;28;20047;-64
2021/05/03 12:45:53;;;;;;;1.85;1.20;;;;;;;;;;5093794;28;20032;-64
2021/05/03 12:48:42;;;;;;;1.65;1.23;;;;;;;;;;5093957;28;20032;-64
2021/05/03 12:59:00;;;;;;;0.80;0.70;;;;;;;;;;5093695;28;20039;-64
2021/05/03 13:06:46;;;;;;;2.53;1.33;;;;;;;;;;5093656;28;20016;-64
2021/05/03 13:12:34;;;;;;;1.92;1.63;;;;;;;;;;5093711;28;20485;-64
2021/05/03 13:29:03;;;;;;;1.60;1.48;;;;;;;;;;5093179;28;20028;-63
2021/05/03 13:31:29;;;;;;;1.33;1.20;;;;;;;;;;5092799;28;20077;-63
2021/05/03 13:33:55;;;;;;;2.10;1.13;;;;;;;;;;5093095;28;20023;-63
2021/05/03 13:36:21;;;;;;;0.90;0.90;;;;;;;;;;5093118;28;20020;-63
2021/05/03 13:38:48;;;;;;;1.35;1.25;;;;;;;;;;5093185;28;20108;-63
2021/05/03 13:41:14;;;;;;;1.30;1.20;;;;;;;;;;5096372;28;20034;-63
2021/05/03 13:43:39;;;;;;;1.00;1.00;;;;;;;;;;5096929;28;20119;-63
2021/05/03 13:46:05;;;;;;;1.50;1.40;;;;;;;;;;5097396;28;20028;-63
2021/05/03 13:48:30;;;;;;;3.53;1.45;;;;;;;;;;5097264;28;20055;-63
2021/05/03 13:50:56;;;;;;;1.40;1.30;;;;;;;;;;5096020;28;20016;-63
2021/05/03 13:53:21;;;;;;;1.20;1.08;;;;;;;;;;5095959;28;20024;-64
2021/05/03 13:55:47;;;;;;;2.10;1.73;;;;;;;;;;5097089;28;20406;-64
2021/05/03 13:58:13;;;;;;;1.50;1.40;;;;;;;;;;5097144;28;20069;-63
2021/05/03 14:00:40;;;;;;;1.13;1.10;;;;;;;;;;5097142;28;20048;-63
2021/05/03 14:03:05;;;;;;;1.55;1.45;;;;;;;;;;5097048;28;20023;-63
2021/05/03 14:05:31;;;;;;;4.32;3.25;;;;;;;;;;5096845;28;20119;-63
2021/05/03 14:07:56;;;;;;;2.47;1.48;;;;;;;;;;5096792;28;20112;-64
2021/05/03 14:10:22;;;;;;;1.45;1.30;;;;;;;;;;5096796;28;20031;-63
2021/05/03 14:12:47;;;;;;;1.30;1.20;;;;;;;;;;5096780;28;20426;-64
2021/05/03 14:15:22;;;;;;;1.38;1.27;;;;;;;;;;5096792;28;20438;-64
2021/05/03 14:17:48;;;;;;;1.92;1.52;;;;;;;;;;5095502;28;20484;-64
2021/05/03 14:20:13;;;;;;;1.40;1.30;;;;;;;;;;5096651;28;20462;-64
2021/05/03 14:22:39;;;;;;;1.27;1.17;;;;;;;;;;5096674;28;20032;-63
2021/05/03 14:25:05;;;;;;;2.15;1.52;;;;;;;;;;5095506;28;20020;-64
2021/05/03 14:27:32;;;;;;;3.05;2.25;;;;;;;;;;5096488;28;20386;-63
2021/05/03 14:30:00;;;;;;;3.85;2.20;;;;;;;;;;5096628;28;20016;-63
2021/05/03 14:32:38;;;;;;;4.07;3.03;;;;;;;;;;5096338;28;20081;-64
2021/05/03 14:35:05;;;;;;;1.52;1.42;;;;;;;;;;5095272;28;20028;-63
2021/05/03 14:37:31;;;;;;;2.65;2.05;;;;;;;;;;5096447;28;20099;-64
2021/05/03 14:39:57;;;;;;;2.28;2.05;;;;;;;;;;5096418;28;20078;-64
2021/05/03 14:42:22;;;;;;;2.50;1.88;;;;;;;;;;5095820;28;20054;-64
2021/05/03 14:44:48;;;;;;;1.40;1.30;;;;;;;;;;5096433;28;20119;-63
2021/05/03 14:47:19;;;;;;;1.50;1.40;;;;;;;;;;5095060;28;20427;-63
2021/05/03 14:50:11;;;;;;;2.03;1.40;;;;;;;;;;5096228;28;20052;-63
2021/05/03 14:55:08;;;;;;;1.17;1.17;;;;;;;;;;5096130;28;20028;-64
2021/05/03 14:57:33;;;;;;;4.53;3.13;;;;;;;;;;5096001;28;20023;-64
2021/05/03 14:59:59;;;;;;;1.85;1.75;;;;;;;;;;5094717;28;20039;-64
2021/05/03 15:02:24;;;;;;;3.55;2.30;;;;;;;;;;5095954;28;20016;-64
2021/05/03 15:04:50;;;;;;;2.70;2.50;;;;;;;;;;5095829;28;20393;-64
2021/05/03 15:07:17;;;;;;;2.50;1.98;;;;;;;;;;5095241;28;20469;-64
2021/05/03 15:09:48;;;;;;;2.80;2.05;;;;;;;;;;5095885;28;20060;-63
2021/05/03 15:12:20;;;;;;;1.60;1.45;;;;;;;;;;5095742;28;20394;-63
2021/05/03 15:14:58;;;;;;;1.75;1.50;;;;;;;;;;5095748;28;20028;-63
2021/05/03 15:22:46;;;;;;;12.25;4.95;;;;;;;;;;5095622;28;20031;-64
2021/05/03 15:25:12;;;;;;;2.08;1.88;;;;;;;;;;5095553;28;20090;-64
2021/05/03 15:27:43;;;;;;;1.40;1.30;;;;;;;;;;5094081;28;20543;-64
2021/05/03 15:35:28;;;;;;;2.20;1.80;;;;;;;;;;5095242;28;20028;-63
2021/05/03 15:37:54;;;;;;;1.90;1.65;;;;;;;;;;5095226;28;20474;-63
2021/05/03 15:40:20;;;;;;;2.47;1.38;;;;;;;;;;5095154;28;20030;-63
2021/05/03 15:42:47;;;;;;;3.08;1.88;;;;;;;;;;5094684;28;20075;-64
2021/05/03 15:45:13;;;;;;;1.80;1.63;;;;;;;;;;5095383;28;20036;-63
2021/05/03 15:47:38;;;;;;;1.70;1.60;;;;;;;;;;5093621;28;20093;-63
2021/05/03 15:50:05;;;;;;;2.05;1.77;;;;;;;;;;5094950;28;20024;-63
2021/05/03 15:52:30;;;;;;;1.63;1.52;;;;;;;;;;5094893;28;20012;-63